sensor_id;sensor_type;location;lat;lon;timestamp;P1;durP1;ratioP1;P2;durP2;ratioP2
68192;SDS011;55012;47.562;18.414;2022-10-31T00:02:21;36.78;;;17.02;;
68192;SDS011;55012;47.562;18.414;2022-10-31T00:04:46;39.13;;;16.80;;
68192;SDS011;55012;47.562;18.414;2022-10-31T00:07:12;43.75;;;19.00;;
68192;SDS011;55012;47.562;18.414;2022-10-31T00:09:37;42.78;;;19.65;;
68192;SDS011;55012;47.562;18.414;2022-10-31T00:12:03;39.72;;;18.50;;
68192;SDS011;55012;47.562;18.414;2022-10-31T00:14:28;38.05;;;18.05;;
68192;SDS011;55012;47.562;18.414;2022-10-31T00:16:54;31.17;;;14.32;;
68192;SDS011;55012;47.562;18.414;2022-10-31T00:19:19;27.25;;;12.90;;
68192;SDS011;55012;47.562;18.414;2022-10-31T00:21:45;22.35;;;12.18;;
68192;SDS011;55012;47.562;18.414;2022-10-31T00:24:10;22.15;;;11.98;;
68192;SDS011;55012;47.562;18.414;2022-10-31T00:26:36;21.10;;;11.02;;
68192;SDS011;55012;47.562;18.414;2022-10-31T00:29:01;19.02;;;10.75;;
68192;SDS011;55012;47.562;18.414;2022-10-31T00:31:27;20.02;;;10.35;;
68192;SDS011;55012;47.562;18.414;2022-10-31T00:33:53;20.38;;;11.35;;
68192;SDS011;55012;47.562;18.414;2022-10-31T00:36:19;18.70;;;11.07;;
68192;SDS011;55012;47.562;18.414;2022-10-31T00:38:45;19.92;;;10.38;;
68192;SDS011;55012;47.562;18.414;2022-10-31T00:41:13;16.98;;;10.30;;
68192;SDS011;55012;47.562;18.414;2022-10-31T00:43:40;24.60;;;12.15;;
68192;SDS011;55012;47.562;18.414;2022-10-31T00:46:06;29.17;;;13.68;;
68192;SDS011;55012;47.562;18.414;2022-10-31T00:48:32;30.40;;;13.45;;
68192;SDS011;55012;47.562;18.414;2022-10-31T00:50:57;28.80;;;13.55;;
68192;SDS011;55012;47.562;18.414;2022-10-31T00:53:23;32.97;;;13.10;;
68192;SDS011;55012;47.562;18.414;2022-10-31T00:55:48;27.88;;;13.00;;
68192;SDS011;55012;47.562;18.414;2022-10-31T00:58:14;27.55;;;11.40;;
68192;SDS011;55012;47.562;18.414;2022-10-31T01:00:39;36.58;;;11.85;;
68192;SDS011;55012;47.562;18.414;2022-10-31T01:03:05;27.13;;;11.55;;
68192;SDS011;55012;47.562;18.414;2022-10-31T01:05:30;23.15;;;11.65;;
68192;SDS011;55012;47.562;18.414;2022-10-31T01:07:56;23.75;;;11.70;;
68192;SDS011;55012;47.562;18.414;2022-10-31T01:10:22;24.02;;;11.43;;
68192;SDS011;55012;47.562;18.414;2022-10-31T01:12:48;25.73;;;11.98;;
68192;SDS011;55012;47.562;18.414;2022-10-31T01:15:15;24.63;;;12.30;;
68192;SDS011;55012;47.562;18.414;2022-10-31T01:17:42;28.70;;;11.93;;
68192;SDS011;55012;47.562;18.414;2022-10-31T01:20:08;17.67;;;9.90;;
68192;SDS011;55012;47.562;18.414;2022-10-31T01:22:35;16.35;;;9.30;;
68192;SDS011;55012;47.562;18.414;2022-10-31T01:25:00;16.55;;;9.90;;
68192;SDS011;55012;47.562;18.414;2022-10-31T01:27:26;13.45;;;8.48;;
68192;SDS011;55012;47.562;18.414;2022-10-31T01:29:52;13.43;;;8.52;;
68192;SDS011;55012;47.562;18.414;2022-10-31T01:32:17;12.15;;;7.97;;
68192;SDS011;55012;47.562;18.414;2022-10-31T01:34:42;14.63;;;9.30;;
68192;SDS011;55012;47.562;18.414;2022-10-31T01:37:08;14.73;;;9.00;;
68192;SDS011;55012;47.562;18.414;2022-10-31T01:39:33;13.30;;;8.30;;
68192;SDS011;55012;47.562;18.414;2022-10-31T01:41:59;15.38;;;9.45;;
68192;SDS011;55012;47.562;18.414;2022-10-31T01:46:52;15.90;;;9.48;;
68192;SDS011;55012;47.562;18.414;2022-10-31T01:51:56;15.32;;;9.20;;
68192;SDS011;55012;47.562;18.414;2022-10-31T01:54:28;15.80;;;9.23;;
68192;SDS011;55012;47.562;18.414;2022-10-31T01:57:00;15.98;;;9.75;;
68192;SDS011;55012;47.562;18.414;2022-10-31T01:59:30;19.80;;;10.52;;
68192;SDS011;55012;47.562;18.414;2022-10-31T02:01:59;30.13;;;12.02;;
68192;SDS011;55012;47.562;18.414;2022-10-31T02:04:25;24.40;;;11.57;;
68192;SDS011;55012;47.562;18.414;2022-10-31T02:09:23;28.13;;;12.25;;
68192;SDS011;55012;47.562;18.414;2022-10-31T02:11:53;30.20;;;12.93;;
68192;SDS011;55012;47.562;18.414;2022-10-31T02:14:22;40.22;;;13.85;;
68192;SDS011;55012;47.562;18.414;2022-10-31T02:16:48;38.95;;;14.93;;
68192;SDS011;55012;47.562;18.414;2022-10-31T02:19:17;30.55;;;13.18;;
68192;SDS011;55012;47.562;18.414;2022-10-31T02:29:55;25.55;;;11.30;;
68192;SDS011;55012;47.562;18.414;2022-10-31T02:32:34;26.65;;;11.35;;
68192;SDS011;55012;47.562;18.414;2022-10-31T02:37:41;28.77;;;11.55;;
68192;SDS011;55012;47.562;18.414;2022-10-31T02:40:15;29.38;;;12.68;;
68192;SDS011;55012;47.562;18.414;2022-10-31T02:45:43;27.67;;;12.32;;
68192;SDS011;55012;47.562;18.414;2022-10-31T02:48:12;30.65;;;12.60;;
68192;SDS011;55012;47.562;18.414;2022-10-31T02:50:44;42.40;;;13.80;;
68192;SDS011;55012;47.562;18.414;2022-10-31T02:53:17;32.83;;;13.15;;
68192;SDS011;55012;47.562;18.414;2022-10-31T02:56:17;43.78;;;13.98;;
68192;SDS011;55012;47.562;18.414;2022-10-31T02:58:59;53.83;;;14.50;;
68192;SDS011;55012;47.562;18.414;2022-10-31T03:07:03;40.55;;;14.70;;
68192;SDS011;55012;47.562;18.414;2022-10-31T03:09:52;40.90;;;14.40;;
68192;SDS011;55012;47.562;18.414;2022-10-31T03:17:33;69.10;;;15.07;;
68192;SDS011;55012;47.562;18.414;2022-10-31T03:20:02;39.20;;;14.35;;
68192;SDS011;55012;47.562;18.414;2022-10-31T03:22:31;34.10;;;12.43;;
68192;SDS011;55012;47.562;18.414;2022-10-31T03:24:59;33.13;;;11.93;;
68192;SDS011;55012;47.562;18.414;2022-10-31T03:27:29;21.17;;;10.75;;
68192;SDS011;55012;47.562;18.414;2022-10-31T03:29:59;19.08;;;10.77;;
68192;SDS011;55012;47.562;18.414;2022-10-31T03:35:00;22.60;;;10.32;;
68192;SDS011;55012;47.562;18.414;2022-10-31T03:37:32;19.33;;;10.20;;
68192;SDS011;55012;47.562;18.414;2022-10-31T03:39:59;20.30;;;9.68;;
68192;SDS011;55012;47.562;18.414;2022-10-31T03:42:28;26.75;;;10.68;;
68192;SDS011;55012;47.562;18.414;2022-10-31T03:45:03;28.40;;;10.93;;
68192;SDS011;55012;47.562;18.414;2022-10-31T03:47:33;25.65;;;10.82;;
68192;SDS011;55012;47.562;18.414;2022-10-31T03:50:01;23.05;;;10.43;;
68192;SDS011;55012;47.562;18.414;2022-10-31T03:52:39;23.17;;;10.10;;
68192;SDS011;55012;47.562;18.414;2022-10-31T03:55:17;25.77;;;10.52;;
68192;SDS011;55012;47.562;18.414;2022-10-31T04:00:40;32.70;;;11.82;;
68192;SDS011;55012;47.562;18.414;2022-10-31T04:03:10;28.65;;;12.38;;
68192;SDS011;55012;47.562;18.414;2022-10-31T04:05:38;29.42;;;11.77;;
68192;SDS011;55012;47.562;18.414;2022-10-31T04:08:07;26.63;;;10.88;;
68192;SDS011;55012;47.562;18.414;2022-10-31T04:10:36;29.38;;;10.25;;
68192;SDS011;55012;47.562;18.414;2022-10-31T04:13:08;21.65;;;10.30;;
68192;SDS011;55012;47.562;18.414;2022-10-31T04:15:38;23.27;;;10.60;;
68192;SDS011;55012;47.562;18.414;2022-10-31T04:18:04;17.77;;;8.82;;
68192;SDS011;55012;47.562;18.414;2022-10-31T04:20:33;16.95;;;9.18;;
68192;SDS011;55012;47.562;18.414;2022-10-31T04:23:00;14.27;;;8.48;;
68192;SDS011;55012;47.562;18.414;2022-10-31T04:25:26;14.13;;;7.97;;
68192;SDS011;55012;47.562;18.414;2022-10-31T04:27:52;15.65;;;8.00;;
68192;SDS011;55012;47.562;18.414;2022-10-31T04:30:17;15.68;;;7.88;;
68192;SDS011;55012;47.562;18.414;2022-10-31T04:32:43;15.80;;;8.27;;
68192;SDS011;55012;47.562;18.414;2022-10-31T04:35:08;16.70;;;8.52;;
68192;SDS011;55012;47.562;18.414;2022-10-31T04:37:34;16.25;;;8.38;;
68192;SDS011;55012;47.562;18.414;2022-10-31T04:39:59;17.27;;;8.07;;
68192;SDS011;55012;47.562;18.414;2022-10-31T04:42:25;14.52;;;8.45;;
68192;SDS011;55012;47.562;18.414;2022-10-31T04:44:50;15.85;;;8.88;;
68192;SDS011;55012;47.562;18.414;2022-10-31T04:47:15;16.10;;;8.68;;
68192;SDS011;55012;47.562;18.414;2022-10-31T04:49:41;17.42;;;9.25;;
68192;SDS011;55012;47.562;18.414;2022-10-31T04:52:06;18.88;;;9.70;;
68192;SDS011;55012;47.562;18.414;2022-10-31T04:54:33;18.58;;;9.13;;
68192;SDS011;55012;47.562;18.414;2022-10-31T04:56:58;20.15;;;9.57;;
68192;SDS011;55012;47.562;18.414;2022-10-31T04:59:24;24.73;;;10.70;;
68192;SDS011;55012;47.562;18.414;2022-10-31T05:01:49;27.88;;;11.68;;
68192;SDS011;55012;47.562;18.414;2022-10-31T05:04:14;27.60;;;11.18;;
68192;SDS011;55012;47.562;18.414;2022-10-31T05:06:40;27.55;;;11.57;;
68192;SDS011;55012;47.562;18.414;2022-10-31T05:09:05;29.35;;;12.32;;
68192;SDS011;55012;47.562;18.414;2022-10-31T05:11:31;35.72;;;14.23;;
68192;SDS011;55012;47.562;18.414;2022-10-31T05:13:56;45.35;;;16.10;;
68192;SDS011;55012;47.562;18.414;2022-10-31T05:16:22;35.40;;;12.77;;
68192;SDS011;55012;47.562;18.414;2022-10-31T05:18:47;31.02;;;12.13;;
68192;SDS011;55012;47.562;18.414;2022-10-31T05:21:12;44.28;;;15.25;;
68192;SDS011;55012;47.562;18.414;2022-10-31T05:23:38;45.17;;;16.52;;
68192;SDS011;55012;47.562;18.414;2022-10-31T05:26:03;32.05;;;11.85;;
68192;SDS011;55012;47.562;18.414;2022-10-31T05:28:29;27.85;;;10.30;;
68192;SDS011;55012;47.562;18.414;2022-10-31T05:30:54;20.60;;;9.07;;
68192;SDS011;55012;47.562;18.414;2022-10-31T05:33:20;24.63;;;11.13;;
68192;SDS011;55012;47.562;18.414;2022-10-31T05:35:45;33.28;;;12.98;;
68192;SDS011;55012;47.562;18.414;2022-10-31T05:38:11;32.30;;;13.02;;
68192;SDS011;55012;47.562;18.414;2022-10-31T05:40:36;25.58;;;11.18;;
68192;SDS011;55012;47.562;18.414;2022-10-31T05:43:02;22.02;;;10.05;;
68192;SDS011;55012;47.562;18.414;2022-10-31T05:45:27;22.15;;;9.88;;
68192;SDS011;55012;47.562;18.414;2022-10-31T05:47:53;18.10;;;9.15;;
68192;SDS011;55012;47.562;18.414;2022-10-31T05:50:20;21.58;;;9.75;;
68192;SDS011;55012;47.562;18.414;2022-10-31T05:52:46;21.30;;;9.25;;
68192;SDS011;55012;47.562;18.414;2022-10-31T05:55:12;21.92;;;9.57;;
68192;SDS011;55012;47.562;18.414;2022-10-31T05:57:38;21.73;;;9.98;;
68192;SDS011;55012;47.562;18.414;2022-10-31T06:00:04;19.38;;;9.10;;
68192;SDS011;55012;47.562;18.414;2022-10-31T06:02:30;18.13;;;9.23;;
68192;SDS011;55012;47.562;18.414;2022-10-31T06:04:59;20.48;;;8.98;;
68192;SDS011;55012;47.562;18.414;2022-10-31T06:07:25;18.80;;;9.45;;
68192;SDS011;55012;47.562;18.414;2022-10-31T06:09:51;25.20;;;10.73;;
68192;SDS011;55012;47.562;18.414;2022-10-31T06:12:17;26.38;;;11.55;;
68192;SDS011;55012;47.562;18.414;2022-10-31T06:14:42;22.52;;;10.15;;
68192;SDS011;55012;47.562;18.414;2022-10-31T06:17:07;26.45;;;10.18;;
68192;SDS011;55012;47.562;18.414;2022-10-31T06:19:33;24.27;;;10.15;;
68192;SDS011;55012;47.562;18.414;2022-10-31T06:21:58;18.70;;;8.70;;
68192;SDS011;55012;47.562;18.414;2022-10-31T06:24:24;17.23;;;8.90;;
68192;SDS011;55012;47.562;18.414;2022-10-31T06:26:49;15.88;;;8.52;;
68192;SDS011;55012;47.562;18.414;2022-10-31T06:29:15;11.65;;;6.97;;
68192;SDS011;55012;47.562;18.414;2022-10-31T06:31:40;10.15;;;6.00;;
68192;SDS011;55012;47.562;18.414;2022-10-31T06:34:06;11.23;;;6.43;;
68192;SDS011;55012;47.562;18.414;2022-10-31T06:36:31;11.07;;;5.85;;
68192;SDS011;55012;47.562;18.414;2022-10-31T06:38:57;9.30;;;5.47;;
68192;SDS011;55012;47.562;18.414;2022-10-31T06:41:22;8.73;;;6.07;;
68192;SDS011;55012;47.562;18.414;2022-10-31T06:43:47;10.57;;;5.90;;
68192;SDS011;55012;47.562;18.414;2022-10-31T06:46:13;8.65;;;5.60;;
68192;SDS011;55012;47.562;18.414;2022-10-31T06:48:40;8.35;;;5.43;;
68192;SDS011;55012;47.562;18.414;2022-10-31T06:51:06;7.38;;;5.28;;
68192;SDS011;55012;47.562;18.414;2022-10-31T06:53:32;8.77;;;5.45;;
68192;SDS011;55012;47.562;18.414;2022-10-31T06:55:57;10.85;;;5.63;;
68192;SDS011;55012;47.562;18.414;2022-10-31T06:58:23;9.05;;;6.07;;
68192;SDS011;55012;47.562;18.414;2022-10-31T07:00:49;12.85;;;6.25;;
68192;SDS011;55012;47.562;18.414;2022-10-31T07:03:15;13.43;;;6.18;;
68192;SDS011;55012;47.562;18.414;2022-10-31T07:05:41;12.15;;;6.38;;
68192;SDS011;55012;47.562;18.414;2022-10-31T07:08:08;12.88;;;6.07;;
68192;SDS011;55012;47.562;18.414;2022-10-31T07:10:36;14.52;;;6.95;;
68192;SDS011;55012;47.562;18.414;2022-10-31T07:13:04;10.55;;;6.57;;
68192;SDS011;55012;47.562;18.414;2022-10-31T07:15:35;20.38;;;6.50;;
68192;SDS011;55012;47.562;18.414;2022-10-31T07:18:06;33.65;;;24.55;;
68192;SDS011;55012;47.562;18.414;2022-10-31T07:20:33;12.65;;;6.32;;
68192;SDS011;55012;47.562;18.414;2022-10-31T07:22:59;12.40;;;6.22;;
68192;SDS011;55012;47.562;18.414;2022-10-31T07:25:25;10.80;;;6.55;;
68192;SDS011;55012;47.562;18.414;2022-10-31T07:27:51;8.48;;;5.82;;
68192;SDS011;55012;47.562;18.414;2022-10-31T07:30:16;10.93;;;6.05;;
68192;SDS011;55012;47.562;18.414;2022-10-31T07:32:49;9.20;;;6.10;;
68192;SDS011;55012;47.562;18.414;2022-10-31T07:35:16;10.52;;;5.85;;
68192;SDS011;55012;47.562;18.414;2022-10-31T07:37:43;12.23;;;6.07;;
68192;SDS011;55012;47.562;18.414;2022-10-31T07:40:09;10.95;;;5.70;;
68192;SDS011;55012;47.562;18.414;2022-10-31T07:42:36;11.35;;;5.82;;
68192;SDS011;55012;47.562;18.414;2022-10-31T07:45:05;10.05;;;5.53;;
68192;SDS011;55012;47.562;18.414;2022-10-31T07:47:42;9.48;;;6.00;;
68192;SDS011;55012;47.562;18.414;2022-10-31T07:50:09;12.55;;;6.72;;
68192;SDS011;55012;47.562;18.414;2022-10-31T07:52:37;12.95;;;6.25;;
68192;SDS011;55012;47.562;18.414;2022-10-31T07:55:03;14.07;;;8.45;;
68192;SDS011;55012;47.562;18.414;2022-10-31T07:57:29;12.13;;;7.20;;
68192;SDS011;55012;47.562;18.414;2022-10-31T07:59:55;12.40;;;6.70;;
68192;SDS011;55012;47.562;18.414;2022-10-31T08:02:20;13.27;;;7.30;;
68192;SDS011;55012;47.562;18.414;2022-10-31T08:04:46;13.80;;;6.82;;
68192;SDS011;55012;47.562;18.414;2022-10-31T08:07:12;13.82;;;7.95;;
68192;SDS011;55012;47.562;18.414;2022-10-31T08:09:37;14.68;;;7.65;;
68192;SDS011;55012;47.562;18.414;2022-10-31T08:12:02;15.05;;;7.55;;
68192;SDS011;55012;47.562;18.414;2022-10-31T08:14:28;16.73;;;8.05;;
68192;SDS011;55012;47.562;18.414;2022-10-31T08:16:54;15.63;;;7.82;;
68192;SDS011;55012;47.562;18.414;2022-10-31T08:19:19;15.40;;;7.40;;
68192;SDS011;55012;47.562;18.414;2022-10-31T08:21:45;18.40;;;7.90;;
68192;SDS011;55012;47.562;18.414;2022-10-31T08:24:11;17.75;;;9.75;;
68192;SDS011;55012;47.562;18.414;2022-10-31T08:26:36;16.92;;;8.82;;
68192;SDS011;55012;47.562;18.414;2022-10-31T08:29:02;16.30;;;8.80;;
68192;SDS011;55012;47.562;18.414;2022-10-31T08:31:28;15.40;;;8.98;;
68192;SDS011;55012;47.562;18.414;2022-10-31T08:33:54;14.43;;;8.30;;
68192;SDS011;55012;47.562;18.414;2022-10-31T08:36:20;20.90;;;11.02;;
68192;SDS011;55012;47.562;18.414;2022-10-31T08:38:46;27.95;;;14.93;;
68192;SDS011;55012;47.562;18.414;2022-10-31T08:41:12;23.02;;;12.25;;
68192;SDS011;55012;47.562;18.414;2022-10-31T08:43:38;13.20;;;7.45;;
68192;SDS011;55012;47.562;18.414;2022-10-31T08:46:03;15.30;;;9.18;;
68192;SDS011;55012;47.562;18.414;2022-10-31T08:48:29;14.23;;;8.45;;
68192;SDS011;55012;47.562;18.414;2022-10-31T08:50:56;13.63;;;8.52;;
68192;SDS011;55012;47.562;18.414;2022-10-31T08:53:25;13.85;;;7.88;;
68192;SDS011;55012;47.562;18.414;2022-10-31T08:55:53;14.30;;;8.93;;
68192;SDS011;55012;47.562;18.414;2022-10-31T08:58:20;16.65;;;9.25;;
68192;SDS011;55012;47.562;18.414;2022-10-31T09:00:46;13.70;;;7.65;;
68192;SDS011;55012;47.562;18.414;2022-10-31T09:03:15;14.00;;;8.27;;
68192;SDS011;55012;47.562;18.414;2022-10-31T09:05:42;24.27;;;11.50;;
68192;SDS011;55012;47.562;18.414;2022-10-31T09:08:07;26.90;;;14.18;;
68192;SDS011;55012;47.562;18.414;2022-10-31T09:10:34;23.42;;;13.00;;
68192;SDS011;55012;47.562;18.414;2022-10-31T09:13:02;18.77;;;10.48;;
68192;SDS011;55012;47.562;18.414;2022-10-31T09:15:33;13.43;;;7.78;;
68192;SDS011;55012;47.562;18.414;2022-10-31T09:17:59;12.68;;;8.02;;
68192;SDS011;55012;47.562;18.414;2022-10-31T09:20:26;13.63;;;8.75;;
68192;SDS011;55012;47.562;18.414;2022-10-31T09:22:59;16.45;;;8.52;;
68192;SDS011;55012;47.562;18.414;2022-10-31T09:25:35;11.45;;;7.63;;
68192;SDS011;55012;47.562;18.414;2022-10-31T09:28:01;14.77;;;8.38;;
68192;SDS011;55012;47.562;18.414;2022-10-31T09:30:28;11.88;;;7.88;;
68192;SDS011;55012;47.562;18.414;2022-10-31T09:32:55;13.70;;;8.35;;
68192;SDS011;55012;47.562;18.414;2022-10-31T09:35:22;12.98;;;8.15;;
68192;SDS011;55012;47.562;18.414;2022-10-31T09:37:53;13.63;;;8.40;;
68192;SDS011;55012;47.562;18.414;2022-10-31T09:40:19;12.35;;;7.85;;
68192;SDS011;55012;47.562;18.414;2022-10-31T09:46:03;13.10;;;7.70;;
68192;SDS011;55012;47.562;18.414;2022-10-31T09:51:45;11.13;;;7.13;;
68192;SDS011;55012;47.562;18.414;2022-10-31T09:54:21;12.20;;;7.80;;
68192;SDS011;55012;47.562;18.414;2022-10-31T09:56:53;10.43;;;7.30;;
68192;SDS011;55012;47.562;18.414;2022-10-31T09:59:26;12.30;;;7.18;;
68192;SDS011;55012;47.562;18.414;2022-10-31T10:01:58;11.05;;;7.03;;
68192;SDS011;55012;47.562;18.414;2022-10-31T10:06:56;13.90;;;7.90;;
68192;SDS011;55012;47.562;18.414;2022-10-31T10:09:24;17.88;;;8.27;;
68192;SDS011;55012;47.562;18.414;2022-10-31T10:14:59;14.48;;;8.73;;
68192;SDS011;55012;47.562;18.414;2022-10-31T10:20:34;11.68;;;7.53;;
68192;SDS011;55012;47.562;18.414;2022-10-31T10:28:38;13.15;;;8.13;;
68192;SDS011;55012;47.562;18.414;2022-10-31T10:31:08;14.45;;;9.40;;
68192;SDS011;55012;47.562;18.414;2022-10-31T10:36:30;18.73;;;10.75;;
68192;SDS011;55012;47.562;18.414;2022-10-31T10:39:03;16.65;;;9.40;;
68192;SDS011;55012;47.562;18.414;2022-10-31T10:41:33;12.00;;;7.97;;
68192;SDS011;55012;47.562;18.414;2022-10-31T10:43:59;14.20;;;8.90;;
68192;SDS011;55012;47.562;18.414;2022-10-31T10:46:43;16.08;;;9.82;;
68192;SDS011;55012;47.562;18.414;2022-10-31T10:49:45;16.95;;;8.50;;
68192;SDS011;55012;47.562;18.414;2022-10-31T11:02:55;26.08;;;13.02;;
68192;SDS011;55012;47.562;18.414;2022-10-31T11:08:30;27.20;;;14.65;;
68192;SDS011;55012;47.562;18.414;2022-10-31T11:13:24;21.83;;;12.75;;
68192;SDS011;55012;47.562;18.414;2022-10-31T11:18:22;21.73;;;12.05;;
68192;SDS011;55012;47.562;18.414;2022-10-31T11:20:53;32.35;;;17.52;;
68192;SDS011;55012;47.562;18.414;2022-10-31T11:23:21;38.40;;;20.52;;
68192;SDS011;55012;47.562;18.414;2022-10-31T11:28:25;23.25;;;12.85;;
68192;SDS011;55012;47.562;18.414;2022-10-31T11:30:52;19.60;;;11.85;;
68192;SDS011;55012;47.562;18.414;2022-10-31T11:35:56;20.70;;;11.90;;
68192;SDS011;55012;47.562;18.414;2022-10-31T11:38:24;23.80;;;11.95;;
68192;SDS011;55012;47.562;18.414;2022-10-31T11:41:05;20.85;;;12.02;;
68192;SDS011;55012;47.562;18.414;2022-10-31T11:44:12;22.55;;;12.57;;
68192;SDS011;55012;47.562;18.414;2022-10-31T11:46:37;19.83;;;11.00;;
68192;SDS011;55012;47.562;18.414;2022-10-31T11:49:05;22.33;;;12.63;;
68192;SDS011;55012;47.562;18.414;2022-10-31T11:51:57;19.25;;;11.43;;
68192;SDS011;55012;47.562;18.414;2022-10-31T11:54:34;26.70;;;13.80;;
68192;SDS011;55012;47.562;18.414;2022-10-31T11:57:25;29.25;;;14.27;;
68192;SDS011;55012;47.562;18.414;2022-10-31T11:59:53;22.65;;;12.98;;
68192;SDS011;55012;47.562;18.414;2022-10-31T12:02:20;25.27;;;14.68;;
68192;SDS011;55012;47.562;18.414;2022-10-31T12:04:47;29.60;;;15.05;;
68192;SDS011;55012;47.562;18.414;2022-10-31T12:07:22;24.45;;;13.93;;
68192;SDS011;55012;47.562;18.414;2022-10-31T12:09:48;25.80;;;14.75;;
68192;SDS011;55012;47.562;18.414;2022-10-31T12:20:50;41.58;;;20.70;;
68192;SDS011;55012;47.562;18.414;2022-10-31T12:26:29;30.48;;;14.60;;
68192;SDS011;55012;47.562;18.414;2022-10-31T12:29:13;22.33;;;11.93;;
68192;SDS011;55012;47.562;18.414;2022-10-31T12:32:50;24.35;;;13.45;;
68192;SDS011;55012;47.562;18.414;2022-10-31T12:43:18;20.02;;;11.07;;
68192;SDS011;55012;47.562;18.414;2022-10-31T12:45:56;21.20;;;11.77;;
68192;SDS011;55012;47.562;18.414;2022-10-31T12:59:40;25.42;;;12.95;;
68192;SDS011;55012;47.562;18.414;2022-10-31T13:02:24;22.45;;;12.20;;
68192;SDS011;55012;47.562;18.414;2022-10-31T13:04:58;23.35;;;12.57;;
68192;SDS011;55012;47.562;18.414;2022-10-31T13:12:38;26.88;;;13.48;;
68192;SDS011;55012;47.562;18.414;2022-10-31T13:15:16;28.85;;;13.80;;
68192;SDS011;55012;47.562;18.414;2022-10-31T13:17:50;38.40;;;15.63;;
68192;SDS011;55012;47.562;18.414;2022-10-31T13:23:42;28.00;;;14.02;;
68192;SDS011;55012;47.562;18.414;2022-10-31T13:25:52;26.33;;;13.63;;
68192;SDS011;55012;47.562;18.414;2022-10-31T13:28:40;31.17;;;14.68;;
68192;SDS011;55012;47.562;18.414;2022-10-31T13:31:13;37.95;;;17.45;;
68192;SDS011;55012;47.562;18.414;2022-10-31T13:33:42;45.05;;;22.27;;
68192;SDS011;55012;47.562;18.414;2022-10-31T13:42:19;27.88;;;13.65;;
68192;SDS011;55012;47.562;18.414;2022-10-31T13:44:53;28.75;;;13.98;;
68192;SDS011;55012;47.562;18.414;2022-10-31T13:47:23;26.90;;;14.15;;
68192;SDS011;55012;47.562;18.414;2022-10-31T13:50:06;27.15;;;13.80;;
68192;SDS011;55012;47.562;18.414;2022-10-31T13:52:44;34.53;;;17.63;;
68192;SDS011;55012;47.562;18.414;2022-10-31T13:58:27;31.35;;;15.95;;
68192;SDS011;55012;47.562;18.414;2022-10-31T14:03:38;30.83;;;14.38;;
68192;SDS011;55012;47.562;18.414;2022-10-31T14:06:06;29.38;;;14.57;;
68192;SDS011;55012;47.562;18.414;2022-10-31T14:08:34;30.30;;;14.45;;
68192;SDS011;55012;47.562;18.414;2022-10-31T14:11:07;29.75;;;15.07;;
68192;SDS011;55012;47.562;18.414;2022-10-31T14:13:35;34.20;;;15.43;;
68192;SDS011;55012;47.562;18.414;2022-10-31T14:16:06;32.92;;;14.48;;
68192;SDS011;55012;47.562;18.414;2022-10-31T14:18:57;38.33;;;14.45;;
68192;SDS011;55012;47.562;18.414;2022-10-31T14:21:30;39.88;;;17.17;;
68192;SDS011;55012;47.562;18.414;2022-10-31T14:24:01;44.30;;;18.73;;
68192;SDS011;55012;47.562;18.414;2022-10-31T14:26:40;56.33;;;22.13;;
68192;SDS011;55012;47.562;18.414;2022-10-31T14:31:43;46.75;;;20.83;;
68192;SDS011;55012;47.562;18.414;2022-10-31T14:36:46;37.00;;;15.35;;
68192;SDS011;55012;47.562;18.414;2022-10-31T14:39:20;37.97;;;16.15;;
68192;SDS011;55012;47.562;18.414;2022-10-31T14:41:56;36.78;;;15.68;;
68192;SDS011;55012;47.562;18.414;2022-10-31T14:52:32;38.00;;;15.13;;
68192;SDS011;55012;47.562;18.414;2022-10-31T14:54:59;40.45;;;16.17;;
68192;SDS011;55012;47.562;18.414;2022-10-31T14:57:30;43.25;;;17.08;;
68192;SDS011;55012;47.562;18.414;2022-10-31T15:00:06;49.10;;;17.15;;
68192;SDS011;55012;47.562;18.414;2022-10-31T15:05:03;48.80;;;18.38;;
68192;SDS011;55012;47.562;18.414;2022-10-31T15:07:33;51.55;;;19.05;;
68192;SDS011;55012;47.562;18.414;2022-10-31T15:10:06;54.85;;;20.58;;
68192;SDS011;55012;47.562;18.414;2022-10-31T15:12:46;49.00;;;19.55;;
68192;SDS011;55012;47.562;18.414;2022-10-31T15:15:19;53.67;;;21.20;;
68192;SDS011;55012;47.562;18.414;2022-10-31T15:17:54;52.83;;;20.02;;
68192;SDS011;55012;47.562;18.414;2022-10-31T15:20:24;57.95;;;20.75;;
68192;SDS011;55012;47.562;18.414;2022-10-31T15:22:51;48.00;;;19.00;;
68192;SDS011;55012;47.562;18.414;2022-10-31T15:25:21;50.40;;;19.75;;
68192;SDS011;55012;47.562;18.414;2022-10-31T15:27:50;50.38;;;19.92;;
68192;SDS011;55012;47.562;18.414;2022-10-31T15:32:50;43.10;;;17.13;;
68192;SDS011;55012;47.562;18.414;2022-10-31T15:35:22;42.45;;;16.15;;
68192;SDS011;55012;47.562;18.414;2022-10-31T15:37:52;41.38;;;17.10;;
68192;SDS011;55012;47.562;18.414;2022-10-31T15:40:19;44.50;;;18.20;;
68192;SDS011;55012;47.562;18.414;2022-10-31T15:42:49;42.47;;;17.63;;
68192;SDS011;55012;47.562;18.414;2022-10-31T15:45:19;46.00;;;18.17;;
68192;SDS011;55012;47.562;18.414;2022-10-31T15:47:52;44.85;;;19.30;;
68192;SDS011;55012;47.562;18.414;2022-10-31T15:50:27;50.88;;;19.17;;
68192;SDS011;55012;47.562;18.414;2022-10-31T15:52:56;48.60;;;19.75;;
68192;SDS011;55012;47.562;18.414;2022-10-31T15:55:25;48.80;;;20.30;;
68192;SDS011;55012;47.562;18.414;2022-10-31T15:57:58;53.78;;;21.00;;
68192;SDS011;55012;47.562;18.414;2022-10-31T16:03:04;61.17;;;24.27;;
68192;SDS011;55012;47.562;18.414;2022-10-31T16:05:36;59.28;;;22.85;;
68192;SDS011;55012;47.562;18.414;2022-10-31T16:08:04;64.18;;;23.42;;
68192;SDS011;55012;47.562;18.414;2022-10-31T16:11:29;61.03;;;22.45;;
68192;SDS011;55012;47.562;18.414;2022-10-31T16:14:07;62.13;;;21.88;;
68192;SDS011;55012;47.562;18.414;2022-10-31T16:16:45;51.97;;;19.38;;
68192;SDS011;55012;47.562;18.414;2022-10-31T16:19:21;49.97;;;20.73;;
68192;SDS011;55012;47.562;18.414;2022-10-31T16:21:53;52.75;;;20.40;;
68192;SDS011;55012;47.562;18.414;2022-10-31T16:24:26;53.67;;;20.67;;
68192;SDS011;55012;47.562;18.414;2022-10-31T16:26:59;52.88;;;20.85;;
68192;SDS011;55012;47.562;18.414;2022-10-31T16:29:34;57.20;;;19.15;;
68192;SDS011;55012;47.562;18.414;2022-10-31T16:32:04;50.95;;;19.55;;
68192;SDS011;55012;47.562;18.414;2022-10-31T16:34:29;51.83;;;19.40;;
68192;SDS011;55012;47.562;18.414;2022-10-31T16:36:55;50.50;;;19.10;;
68192;SDS011;55012;47.562;18.414;2022-10-31T16:39:21;50.50;;;19.63;;
68192;SDS011;55012;47.562;18.414;2022-10-31T16:41:48;55.55;;;20.17;;
68192;SDS011;55012;47.562;18.414;2022-10-31T16:44:20;53.92;;;20.17;;
68192;SDS011;55012;47.562;18.414;2022-10-31T16:46:47;50.83;;;19.48;;
68192;SDS011;55012;47.562;18.414;2022-10-31T16:49:13;51.75;;;19.20;;
68192;SDS011;55012;47.562;18.414;2022-10-31T16:51:40;48.78;;;19.45;;
68192;SDS011;55012;47.562;18.414;2022-10-31T16:54:06;50.42;;;19.45;;
68192;SDS011;55012;47.562;18.414;2022-10-31T16:56:34;60.40;;;21.25;;
68192;SDS011;55012;47.562;18.414;2022-10-31T16:59:02;86.38;;;28.67;;
68192;SDS011;55012;47.562;18.414;2022-10-31T17:01:31;92.10;;;31.73;;
68192;SDS011;55012;47.562;18.414;2022-10-31T17:03:57;70.03;;;25.02;;